createdAt,value
2023-05-14T00:01:52.112Z,11.90
2023-05-14T00:04:19.771Z,11.30
2023-05-14T00:06:46.646Z,9.68
2023-05-14T00:09:13.462Z,10.77
2023-05-14T00:11:40.218Z,7.38
2023-05-14T00:14:06.929Z,11.00
2023-05-14T00:16:33.695Z,11.32
2023-05-14T00:19:00.433Z,10.05
2023-05-14T00:21:27.128Z,9.20
2023-05-14T00:23:53.804Z,6.90
2023-05-14T00:26:21.529Z,11.88
2023-05-14T00:28:49.164Z,8.05
2023-05-14T00:31:16.080Z,8.68
2023-05-14T00:33:42.853Z,9.65
2023-05-14T00:36:09.724Z,10.50
2023-05-14T00:38:36.676Z,11.73
2023-05-14T00:41:03.682Z,9.38
2023-05-14T00:43:31.967Z,8.48
2023-05-14T00:45:59.301Z,10.38
2023-05-14T00:48:26.469Z,11.43
2023-05-14T00:50:53.261Z,9.35
2023-05-14T00:53:20.894Z,12.10
2023-05-14T00:55:49.504Z,8.50
2023-05-14T00:58:18.848Z,12.00
2023-05-14T01:00:45.957Z,9.73
2023-05-14T01:03:13.032Z,10.98
2023-05-14T01:05:53.736Z,13.02
2023-05-14T01:08:20.542Z,9.48
2023-05-14T01:11:03.835Z,12.10
2023-05-14T01:13:47.337Z,8.02
2023-05-14T01:16:18.316Z,12.68
2023-05-14T01:18:46.808Z,14.15
2023-05-14T01:21:40.405Z,10.13
2023-05-14T01:24:09.390Z,8.70
2023-05-14T01:26:37.071Z,8.73
2023-05-14T01:29:19.004Z,10.50
2023-05-14T01:31:48.994Z,8.63
2023-05-14T01:34:19.381Z,11.63
2023-05-14T01:36:48.593Z,9.93
2023-05-14T01:39:15.733Z,8.82
2023-05-14T01:41:43.398Z,8.27
2023-05-14T01:44:11.176Z,12.00
2023-05-14T01:46:38.230Z,9.82
2023-05-14T01:49:05.184Z,13.75
2023-05-14T01:51:32.234Z,16.77
2023-05-14T01:53:59.036Z,11.65
2023-05-14T01:56:25.911Z,15.23
2023-05-14T01:58:52.949Z,14.63
2023-05-14T02:01:19.699Z,20.95
2023-05-14T02:03:47.624Z,12.38
2023-05-14T02:06:14.492Z,14.10
2023-05-14T02:08:41.178Z,8.77
2023-05-14T02:11:07.957Z,13.90
2023-05-14T02:13:36.330Z,9.90
2023-05-14T02:16:03.308Z,12.43
2023-05-14T02:18:30.066Z,13.93
2023-05-14T02:20:57.552Z,13.05
2023-05-14T02:23:34.197Z,19.45
2023-05-14T02:26:09.865Z,15.25
2023-05-14T02:28:36.632Z,16.55
2023-05-14T02:31:03.760Z,14.70
2023-05-14T02:33:30.600Z,15.15
2023-05-14T02:35:57.478Z,22.63
2023-05-14T02:38:24.282Z,14.70
2023-05-14T02:40:51.034Z,11.80
2023-05-14T02:43:17.821Z,14.32
2023-05-14T02:45:44.668Z,14.88
2023-05-14T02:48:11.825Z,13.50
2023-05-14T02:50:38.630Z,11.68
2023-05-14T02:53:05.490Z,19.73
2023-05-14T02:55:32.195Z,15.45
2023-05-14T02:57:59.078Z,17.33
2023-05-14T03:00:26.140Z,19.48
2023-05-14T03:02:53.550Z,14.90
2023-05-14T03:05:21.092Z,15.27
2023-05-14T03:07:47.799Z,17.17
2023-05-14T03:10:14.690Z,13.90
2023-05-14T03:12:41.715Z,14.20
2023-05-14T03:15:09.233Z,12.77
2023-05-14T03:17:36.098Z,15.20
2023-05-14T03:20:03.567Z,15.77
2023-05-14T03:22:30.419Z,23.65
2023-05-14T03:24:57.313Z,19.70
2023-05-14T03:27:24.093Z,13.35
2023-05-14T03:29:50.785Z,16.90
2023-05-14T03:32:18.303Z,14.38
2023-05-14T03:34:45.194Z,20.92
2023-05-14T03:37:11.918Z,23.05
2023-05-14T03:39:38.705Z,23.27
2023-05-14T03:42:05.631Z,20.38
2023-05-14T03:44:32.349Z,21.27
2023-05-14T03:46:59.146Z,37.97
2023-05-14T03:49:26.280Z,25.60
2023-05-14T03:51:53.094Z,23.27
2023-05-14T03:54:19.875Z,40.22
2023-05-14T03:56:46.671Z,28.75
2023-05-14T03:59:13.385Z,32.90
2023-05-14T04:01:40.238Z,49.25
2023-05-14T04:04:07.023Z,57.80
2023-05-14T04:06:34.591Z,38.85
2023-05-14T04:09:02.615Z,77.53
2023-05-14T04:11:29.694Z,24.63
2023-05-14T04:13:56.681Z,43.78
2023-05-14T04:16:23.581Z,62.15
2023-05-14T04:18:50.443Z,83.80
2023-05-14T04:21:17.232Z,77.03
2023-05-14T04:23:43.957Z,159.85
2023-05-14T04:26:10.819Z,141.13
2023-05-14T04:28:37.475Z,188.52
2023-05-14T04:31:04.637Z,78.32
2023-05-14T04:33:31.362Z,66.18
2023-05-14T04:35:58.040Z,110.75
2023-05-14T04:38:24.784Z,87.78
2023-05-14T04:40:51.522Z,60.85
2023-05-14T04:43:18.249Z,78.80
2023-05-14T04:45:45.045Z,79.25
2023-05-14T04:48:12.298Z,44.10
2023-05-14T04:50:39.061Z,57.83
2023-05-14T04:53:05.718Z,89.72
2023-05-14T04:55:32.477Z,89.80
2023-05-14T04:57:59.165Z,106.20
2023-05-14T05:00:26.033Z,114.22
2023-05-14T05:02:53.112Z,80.47
2023-05-14T05:05:20.121Z,186.55
2023-05-14T05:07:46.976Z,150.63
2023-05-14T05:10:13.745Z,199.75
2023-05-14T05:12:41.421Z,59.72
2023-05-14T05:15:09.660Z,134.23
2023-05-14T05:17:37.002Z,112.53
2023-05-14T05:20:05.667Z,74.63
2023-05-14T05:22:32.516Z,75.18
2023-05-14T05:24:59.990Z,64.90
2023-05-14T05:27:27.058Z,16.23
2023-05-14T05:29:53.741Z,13.13
2023-05-14T05:32:20.517Z,13.10
2023-05-14T05:34:47.318Z,12.13
2023-05-14T05:37:15.003Z,13.05
2023-05-14T05:39:41.779Z,10.68
2023-05-14T05:42:08.817Z,10.18
2023-05-14T05:44:35.575Z,10.70
2023-05-14T05:47:02.456Z,8.48
2023-05-14T05:49:29.309Z,6.70
2023-05-14T05:51:56.090Z,6.32
2023-05-14T05:54:24.933Z,7.57
2023-05-14T05:56:52.066Z,6.05
2023-05-14T05:59:18.921Z,6.55
2023-05-14T06:01:45.660Z,4.38
2023-05-14T06:04:12.389Z,7.30
2023-05-14T06:06:39.044Z,10.18
2023-05-14T06:09:07.111Z,4.40
2023-05-14T06:11:33.800Z,52.03
2023-05-14T06:14:00.727Z,6.97
2023-05-14T06:16:28.009Z,6.88
2023-05-14T06:18:55.915Z,9.98
2023-05-14T06:21:22.690Z,6.30
2023-05-14T06:23:49.476Z,5.45
2023-05-14T06:26:16.167Z,4.28
2023-05-14T06:28:42.901Z,4.18
2023-05-14T06:31:09.656Z,4.45
2023-05-14T06:33:36.617Z,5.22
2023-05-14T06:36:07.842Z,4.70
2023-05-14T06:41:01.165Z,4.22
2023-05-14T06:43:28.338Z,5.10
2023-05-14T06:45:55.089Z,5.13
2023-05-14T06:48:21.973Z,5.85
2023-05-14T06:50:49.848Z,4.95
2023-05-14T06:53:16.932Z,5.53
2023-05-14T06:55:43.741Z,5.20
2023-05-14T06:58:10.450Z,7.05
2023-05-14T07:00:37.198Z,7.45
2023-05-14T07:03:03.975Z,5.10
2023-05-14T07:05:30.944Z,6.95
2023-05-14T07:07:57.701Z,4.55
2023-05-14T07:10:25.107Z,4.85
2023-05-14T07:12:52.083Z,5.40
2023-05-14T07:15:18.918Z,3.97
2023-05-14T07:17:45.659Z,4.80
2023-05-14T07:20:13.070Z,6.85
2023-05-14T07:22:39.816Z,5.82
2023-05-14T07:25:07.332Z,5.20
2023-05-14T07:27:34.072Z,5.13
2023-05-14T07:30:04.748Z,8.88
2023-05-14T07:32:34.270Z,5.13
2023-05-14T07:35:06.351Z,6.07
2023-05-14T07:37:33.201Z,6.18
2023-05-14T07:40:00.047Z,5.20
2023-05-14T07:42:36.709Z,4.38
2023-05-14T07:45:04.987Z,4.47
2023-05-14T07:47:34.941Z,4.40
2023-05-14T07:50:05.879Z,5.35
2023-05-14T07:52:32.640Z,4.63
2023-05-14T07:55:00.015Z,3.75
2023-05-14T07:57:29.469Z,4.53
2023-05-14T07:59:57.082Z,3.70
2023-05-14T08:02:25.104Z,5.25
2023-05-14T08:04:52.108Z,4.05
2023-05-14T08:07:18.931Z,3.85
2023-05-14T08:09:46.787Z,4.60
2023-05-14T08:12:14.021Z,4.88
2023-05-14T08:14:44.399Z,5.13
2023-05-14T08:17:14.295Z,4.88
2023-05-14T08:19:41.103Z,3.97
2023-05-14T08:22:08.149Z,3.97
2023-05-14T08:24:35.224Z,4.38
2023-05-14T08:27:02.420Z,4.47
2023-05-14T08:29:29.121Z,5.85
2023-05-14T08:31:55.903Z,3.70
2023-05-14T08:34:26.681Z,4.90
2023-05-14T08:36:53.619Z,3.72
2023-05-14T08:39:20.298Z,3.75
2023-05-14T08:41:48.041Z,4.35
2023-05-14T08:44:19.038Z,5.50
2023-05-14T08:49:33.433Z,5.10
2023-05-14T08:52:00.678Z,4.22
2023-05-14T08:54:28.818Z,6.28
2023-05-14T08:56:55.771Z,6.85
2023-05-14T08:59:22.868Z,8.00
2023-05-14T09:01:53.750Z,6.57
2023-05-14T09:04:23.405Z,6.25
2023-05-14T09:06:54.487Z,6.72
2023-05-14T09:09:22.629Z,6.13
2023-05-14T09:11:53.957Z,22.55
2023-05-14T09:14:22.720Z,9.48
2023-05-14T09:16:51.490Z,13.45
2023-05-14T09:19:19.541Z,9.57
2023-05-14T09:21:49.598Z,8.87
2023-05-14T09:24:24.534Z,11.50
2023-05-14T09:26:56.341Z,10.23
2023-05-14T09:29:30.180Z,15.07
2023-05-14T09:31:58.334Z,8.10
2023-05-14T09:34:30.927Z,7.93
2023-05-14T09:36:59.504Z,13.73
2023-05-14T09:39:26.930Z,9.65
2023-05-14T09:41:54.294Z,9.13
2023-05-14T09:44:21.656Z,7.25
2023-05-14T09:46:49.105Z,8.60
2023-05-14T09:49:16.161Z,7.03
2023-05-14T09:51:43.261Z,8.20
2023-05-14T09:54:10.289Z,11.20
2023-05-14T09:56:37.733Z,10.30
2023-05-14T09:59:04.480Z,8.73
2023-05-14T10:01:33.044Z,9.43
2023-05-14T10:04:00.364Z,10.05
2023-05-14T10:06:30.514Z,12.32
2023-05-14T10:09:01.511Z,8.52
2023-05-14T10:11:32.739Z,7.22
2023-05-14T10:16:43.635Z,11.13
2023-05-14T10:21:40.952Z,10.10
2023-05-14T10:24:08.642Z,34.45
2023-05-14T10:26:39.504Z,8.30
2023-05-14T10:29:07.026Z,8.60
2023-05-14T10:31:54.194Z,10.30
2023-05-14T10:34:44.298Z,8.55
2023-05-14T10:37:14.639Z,10.30
2023-05-14T10:39:51.592Z,9.27
2023-05-14T10:42:19.969Z,9.48
2023-05-14T10:44:59.737Z,9.45
2023-05-14T10:47:27.138Z,10.35
2023-05-14T10:49:59.607Z,5.85
2023-05-14T10:52:26.753Z,7.78
2023-05-14T10:55:03.074Z,7.32
2023-05-14T10:57:32.015Z,6.70
2023-05-14T11:00:01.331Z,11.48
2023-05-14T11:02:30.689Z,7.72
2023-05-14T11:05:06.069Z,1.35
2023-05-14T11:07:38.490Z,1.15
2023-05-14T11:10:06.654Z,1.65
2023-05-14T11:12:35.405Z,7.68
2023-05-14T11:15:07.262Z,8.40
2023-05-14T11:17:35.657Z,11.57
2023-05-14T11:20:02.831Z,9.68
2023-05-14T11:22:30.235Z,12.48
2023-05-14T11:24:57.537Z,19.48
2023-05-14T11:27:27.471Z,12.20
2023-05-14T11:29:55.991Z,5.40
2023-05-14T11:32:22.914Z,4.40
2023-05-14T11:34:49.841Z,7.43
2023-05-14T11:37:16.925Z,5.80
2023-05-14T11:39:55.277Z,3.50
2023-05-14T11:42:23.723Z,4.05
2023-05-14T11:44:52.286Z,2.78
2023-05-14T11:47:21.357Z,4.70
2023-05-14T11:49:49.208Z,13.10
2023-05-14T11:52:19.499Z,6.93
2023-05-14T11:54:47.105Z,11.85
2023-05-14T11:57:17.134Z,12.13
2023-05-14T11:59:43.979Z,9.75
2023-05-14T12:02:14.166Z,13.18
2023-05-14T12:04:42.895Z,14.77
2023-05-14T12:07:11.985Z,13.70
2023-05-14T12:09:42.604Z,14.60
2023-05-14T12:12:12.447Z,16.77
2023-05-14T12:14:45.357Z,12.80
2023-05-14T12:17:22.593Z,15.07
2023-05-14T12:20:00.329Z,14.45
2023-05-14T12:22:29.860Z,15.73
2023-05-14T12:24:58.837Z,11.65
2023-05-14T12:27:27.558Z,15.18
2023-05-14T12:32:37.879Z,14.98
2023-05-14T12:35:05.043Z,15.02
2023-05-14T12:37:32.138Z,15.65
2023-05-14T12:39:58.849Z,11.23
2023-05-14T12:42:25.620Z,16.88
2023-05-14T12:44:52.409Z,13.02
2023-05-14T12:47:19.422Z,18.05
2023-05-14T12:49:46.269Z,14.88
2023-05-14T12:54:43.514Z,14.98
2023-05-14T12:57:10.421Z,12.27
2023-05-14T12:59:37.170Z,14.50
2023-05-14T13:02:04.017Z,15.50
2023-05-14T13:04:30.768Z,15.57
2023-05-14T13:06:57.579Z,12.55
2023-05-14T13:09:24.238Z,20.63
2023-05-14T13:11:51.156Z,12.27
2023-05-14T13:14:20.171Z,14.75
2023-05-14T13:16:47.161Z,14.38
2023-05-14T13:19:14.004Z,12.43
2023-05-14T13:21:41.021Z,11.57
2023-05-14T13:24:10.151Z,11.73
2023-05-14T13:26:37.697Z,61.20
2023-05-14T13:29:04.377Z,14.27
2023-05-14T13:31:31.174Z,13.75
2023-05-14T13:33:59.446Z,12.80
2023-05-14T13:36:26.484Z,13.00
2023-05-14T13:38:53.276Z,12.60
2023-05-14T13:41:20.019Z,11.88
2023-05-14T13:43:46.668Z,16.25
2023-05-14T13:46:13.582Z,14.48
2023-05-14T13:48:40.365Z,11.30
2023-05-14T13:51:07.137Z,11.90
2023-05-14T13:53:33.887Z,10.82
2023-05-14T13:56:01.789Z,10.55
2023-05-14T13:58:28.793Z,12.55
2023-05-14T14:00:56.664Z,10.23
2023-05-14T14:03:23.585Z,11.95
2023-05-14T14:05:51.661Z,11.68
2023-05-14T14:08:23.925Z,9.90
2023-05-14T14:10:54.500Z,10.25
2023-05-14T14:13:22.989Z,9.25
2023-05-14T14:15:50.259Z,6.30
2023-05-14T14:18:17.992Z,8.40
2023-05-14T14:20:44.674Z,10.40
2023-05-14T14:23:11.400Z,2.15
2023-05-14T14:25:38.265Z,2.42
2023-05-14T14:28:05.087Z,2.47
2023-05-14T14:30:33.270Z,0.63
2023-05-14T14:33:01.363Z,0.68
2023-05-14T14:35:28.491Z,3.63
2023-05-14T14:37:55.816Z,2.08
2023-05-14T14:40:24.015Z,0.70
2023-05-14T14:42:50.830Z,1.10
2023-05-14T14:45:17.669Z,0.93
2023-05-14T14:47:46.358Z,1.08
2023-05-14T14:50:13.809Z,1.30
2023-05-14T14:52:45.629Z,2.03
2023-05-14T14:55:12.967Z,0.70
2023-05-14T14:57:39.828Z,1.38
2023-05-14T15:00:07.370Z,0.60
2023-05-14T15:02:34.750Z,1.60
2023-05-14T15:05:01.759Z,0.50
2023-05-14T15:07:32.806Z,1.90
2023-05-14T15:09:59.584Z,1.08
2023-05-14T15:12:26.312Z,2.28
2023-05-14T15:14:53.072Z,2.03
2023-05-14T15:17:19.761Z,4.05
2023-05-14T15:19:46.739Z,2.38
2023-05-14T15:22:13.556Z,2.63
2023-05-14T15:24:40.343Z,4.32
2023-05-14T15:27:07.039Z,6.32
2023-05-14T15:29:35.015Z,2.92
2023-05-14T15:32:02.274Z,3.70
2023-05-14T15:34:29.286Z,2.00
2023-05-14T15:36:55.962Z,2.20
2023-05-14T15:39:22.749Z,4.72
2023-05-14T15:41:49.466Z,2.03
2023-05-14T15:44:16.336Z,3.05
2023-05-14T15:46:43.037Z,2.75
2023-05-14T15:49:09.946Z,6.53
2023-05-14T15:51:36.628Z,3.20
2023-05-14T15:54:04.966Z,2.75
2023-05-14T15:56:31.728Z,3.85
2023-05-14T15:58:58.470Z,3.00
2023-05-14T16:01:25.185Z,4.28
2023-05-14T16:03:52.904Z,3.20
2023-05-14T16:06:19.751Z,2.85
2023-05-14T16:08:46.523Z,3.97
2023-05-14T16:11:13.231Z,4.63
2023-05-14T16:13:41.601Z,4.93
2023-05-14T16:16:08.577Z,6.32
2023-05-14T16:18:36.386Z,6.38
2023-05-14T16:21:03.720Z,5.80
2023-05-14T16:23:30.614Z,5.63
2023-05-14T16:25:57.884Z,3.33
2023-05-14T16:28:24.789Z,5.95
2023-05-14T16:30:51.564Z,10.07
2023-05-14T16:33:18.262Z,9.82
2023-05-14T16:35:45.545Z,9.90
2023-05-14T16:38:12.280Z,6.85
2023-05-14T16:40:39.017Z,8.13
2023-05-14T16:43:06.017Z,12.65
2023-05-14T16:45:34.819Z,8.40
2023-05-14T16:48:01.582Z,5.70
2023-05-14T16:50:28.494Z,3.65
2023-05-14T16:52:55.208Z,7.70
2023-05-14T16:55:22.086Z,6.05
2023-05-14T16:57:48.941Z,6.07
2023-05-14T17:00:16.119Z,8.32
2023-05-14T17:02:42.798Z,8.10
2023-05-14T17:05:09.805Z,4.63
2023-05-14T17:07:38.452Z,8.20
2023-05-14T17:10:06.439Z,8.13
2023-05-14T17:12:33.232Z,6.03
2023-05-14T17:15:01.975Z,7.15
2023-05-14T17:17:32.200Z,11.43
2023-05-14T17:19:58.960Z,8.20
2023-05-14T17:22:25.891Z,7.20
2023-05-14T17:24:52.969Z,3.95
2023-05-14T17:27:19.600Z,9.77
2023-05-14T17:29:46.269Z,5.32
2023-05-14T17:32:13.033Z,5.50
2023-05-14T17:34:39.811Z,7.05
2023-05-14T17:37:06.935Z,6.30
2023-05-14T17:39:33.751Z,8.57
2023-05-14T17:42:00.542Z,6.63
2023-05-14T17:44:27.206Z,6.70
2023-05-14T17:46:53.929Z,7.30
2023-05-14T17:49:20.702Z,6.20
2023-05-14T17:51:47.472Z,8.15
2023-05-14T17:54:14.210Z,10.60
2023-05-14T17:56:41.092Z,6.65
2023-05-14T17:59:07.856Z,9.75
2023-05-14T18:01:34.551Z,11.73
2023-05-14T18:04:01.434Z,12.93
2023-05-14T18:06:28.285Z,5.63
2023-05-14T18:08:54.975Z,11.20
2023-05-14T18:11:21.681Z,8.70
2023-05-14T18:13:48.388Z,8.82
2023-05-14T18:16:15.244Z,9.52
2023-05-14T18:18:42.104Z,8.23
2023-05-14T18:21:08.971Z,8.38
2023-05-14T18:23:35.822Z,8.90
2023-05-14T18:26:02.629Z,7.05
2023-05-14T18:28:29.370Z,11.98
2023-05-14T18:30:56.131Z,10.02
2023-05-14T18:33:22.822Z,11.43
2023-05-14T18:35:49.485Z,8.35
2023-05-14T18:38:17.915Z,8.88
2023-05-14T18:40:44.652Z,8.82
2023-05-14T18:43:13.400Z,12.40
2023-05-14T18:45:40.474Z,9.75
2023-05-14T18:48:07.267Z,11.65
2023-05-14T18:50:33.977Z,12.90
2023-05-14T18:53:00.637Z,10.70
2023-05-14T18:55:27.540Z,7.97
2023-05-14T18:57:54.284Z,9.43
2023-05-14T19:00:20.952Z,17.38
2023-05-14T19:02:47.948Z,13.15
2023-05-14T19:05:14.712Z,8.30
2023-05-14T19:07:43.041Z,10.93
2023-05-14T19:10:10.919Z,7.70
2023-05-14T19:12:37.647Z,10.38
2023-05-14T19:15:05.614Z,10.07
2023-05-14T19:17:32.869Z,12.63
2023-05-14T19:19:59.692Z,8.50
2023-05-14T19:22:26.384Z,10.20
2023-05-14T19:24:53.108Z,9.48
2023-05-14T19:27:20.711Z,9.07
2023-05-14T19:29:47.442Z,11.80
2023-05-14T19:32:14.199Z,5.35
2023-05-14T19:34:41.180Z,4.45
2023-05-14T19:37:08.060Z,6.95
2023-05-14T19:39:34.765Z,13.52
2023-05-14T19:42:01.618Z,5.75
2023-05-14T19:44:28.336Z,8.02
2023-05-14T19:46:55.141Z,4.05
2023-05-14T19:49:21.858Z,10.00
2023-05-14T19:51:49.795Z,6.35
2023-05-14T19:54:16.569Z,3.67
2023-05-14T19:56:43.292Z,4.38
2023-05-14T19:59:09.935Z,6.32
2023-05-14T20:01:36.798Z,5.43
2023-05-14T20:04:03.870Z,5.55
2023-05-14T20:06:32.125Z,6.15
2023-05-14T20:08:59.142Z,5.20
2023-05-14T20:11:25.985Z,5.47
2023-05-14T20:13:52.797Z,5.45
2023-05-14T20:16:19.606Z,7.35
2023-05-14T20:18:46.434Z,4.43
2023-05-14T20:21:13.235Z,4.78
2023-05-14T20:23:40.867Z,6.93
2023-05-14T20:26:07.739Z,6.68
2023-05-14T20:28:34.479Z,5.45
2023-05-14T20:31:04.129Z,4.80
2023-05-14T20:33:30.930Z,5.03
2023-05-14T20:35:57.717Z,4.85
2023-05-14T20:38:25.752Z,8.23
2023-05-14T20:40:52.503Z,4.20
2023-05-14T20:43:19.237Z,7.32
2023-05-14T20:45:46.172Z,3.05
2023-05-14T20:48:16.288Z,4.40
2023-05-14T20:50:43.604Z,4.32
2023-05-14T20:53:10.361Z,5.70
2023-05-14T20:55:37.082Z,7.50
2023-05-14T20:58:03.803Z,6.35
2023-05-14T21:00:30.582Z,7.30
2023-05-14T21:02:57.701Z,4.90
2023-05-14T21:05:24.887Z,9.05
2023-05-14T21:07:51.787Z,9.20
2023-05-14T21:10:18.607Z,7.57
2023-05-14T21:12:45.551Z,6.82
2023-05-14T21:15:14.876Z,4.50
2023-05-14T21:17:41.974Z,5.07
2023-05-14T21:20:09.370Z,6.90
2023-05-14T21:22:39.041Z,6.60
2023-05-14T21:25:06.269Z,6.05
2023-05-14T21:27:33.251Z,8.43
2023-05-14T21:30:00.051Z,6.25
2023-05-14T21:32:27.020Z,3.45
2023-05-14T21:34:53.811Z,8.82
2023-05-14T21:37:21.867Z,5.57
2023-05-14T21:39:48.661Z,5.53
2023-05-14T21:42:16.267Z,5.68
2023-05-14T21:44:43.058Z,8.13
2023-05-14T21:47:09.817Z,4.35
2023-05-14T21:49:36.774Z,6.72
2023-05-14T21:52:04.465Z,5.47
2023-05-14T21:54:31.179Z,4.22
2023-05-14T21:56:58.068Z,10.38
2023-05-14T21:59:24.874Z,3.78
2023-05-14T22:02:06.396Z,6.78
2023-05-14T22:04:34.322Z,6.13
2023-05-14T22:07:01.604Z,6.13
2023-05-14T22:09:28.882Z,8.52
2023-05-14T22:11:56.478Z,3.75
2023-05-14T22:14:23.245Z,8.80
2023-05-14T22:16:50.288Z,5.60
2023-05-14T22:19:17.225Z,6.10
2023-05-14T22:21:44.091Z,7.10
2023-05-14T22:24:10.839Z,4.40
2023-05-14T22:26:37.556Z,8.60
2023-05-14T22:29:04.755Z,5.57
2023-05-14T22:31:33.913Z,4.75
2023-05-14T22:34:00.653Z,5.25
2023-05-14T22:36:27.458Z,6.82
2023-05-14T22:38:54.338Z,2.92
2023-05-14T22:41:22.190Z,4.38
2023-05-14T22:43:49.438Z,5.43
2023-05-14T22:46:16.373Z,4.57
2023-05-14T22:48:43.115Z,4.97
2023-05-14T22:51:09.927Z,4.57
2023-05-14T22:53:36.765Z,4.03
2023-05-14T22:56:04.607Z,9.35
2023-05-14T22:58:31.416Z,4.95
2023-05-14T23:00:58.190Z,7.32
2023-05-14T23:03:24.869Z,7.07
2023-05-14T23:05:52.196Z,4.43
2023-05-14T23:08:18.890Z,4.55
2023-05-14T23:10:45.696Z,5.53
2023-05-14T23:13:12.674Z,5.72
2023-05-14T23:15:39.475Z,3.35
2023-05-14T23:18:07.685Z,6.03
2023-05-14T23:20:34.530Z,6.75
2023-05-14T23:23:01.194Z,4.53
2023-05-14T23:25:27.982Z,6.45
2023-05-14T23:27:54.700Z,10.90
2023-05-14T23:30:21.453Z,7.93
2023-05-14T23:32:48.207Z,5.93
2023-05-14T23:35:14.952Z,5.22
2023-05-14T23:37:47.070Z,6.35
2023-05-14T23:40:19.722Z,2.90
2023-05-14T23:42:46.661Z,12.45
2023-05-14T23:45:13.678Z,7.65
2023-05-14T23:47:41.134Z,5.72
2023-05-14T23:50:08.121Z,7.72
2023-05-14T23:52:34.969Z,6.65
2023-05-14T23:55:01.929Z,4.40
2023-05-14T23:57:29.061Z,9.75
2023-05-14T23:59:55.921Z,8.13
